Time;durP1;ratioP1;P1;durP2;ratioP2;P2;SDS_P1;SDS_P2;PMS_P1;PMS_P2;Temp;Humidity;BMP_temperature;BMP_pressure;BME280_temperature;BME280_humidity;BME280_pressure;Samples;Min_cycle;Max_cycle;Signal;HPM_P1;HPM_P2
2023/07/18 00:01:45;;;;;;;35.60;24.88;;;;;;;29.81;100.00;97413.91;4806524;29;20054;-63
2023/07/18 00:04:14;;;;;;;32.75;24.10;;;;;;;29.80;100.00;97417.78;4833175;29;20055;-64
2023/07/18 00:06:45;;;;;;;34.78;23.73;;;;;;;29.79;100.00;97414.25;4804556;29;20578;-64
2023/07/18 00:09:15;;;;;;;34.92;24.23;;;;;;;29.80;100.00;97410.41;4820342;29;20634;-64
2023/07/18 00:11:46;;;;;;;33.80;23.95;;;;;;;29.78;100.00;97414.63;4805171;29;20167;-64
2023/07/18 00:14:15;;;;;;;35.22;24.17;;;;;;;29.78;100.00;97415.44;4806327;29;20531;-64
2023/07/18 00:16:44;;;;;;;29.70;22.73;;;;;;;29.79;100.00;97422.44;4806226;29;20100;-63
2023/07/18 00:19:14;;;;;;;35.33;24.83;;;;;;;29.78;100.00;97415.44;4835417;29;20058;-63
2023/07/18 00:21:44;;;;;;;35.40;24.67;;;;;;;29.78;100.00;97418.16;4819834;29;20809;-63
2023/07/18 00:24:13;;;;;;;32.05;23.52;;;;;;;29.77;100.00;97407.56;4803936;29;20063;-63
2023/07/18 00:26:43;;;;;;;31.23;23.52;;;;;;;29.75;100.00;97405.19;4820577;29;20566;-63
2023/07/18 00:29:12;;;;;;;34.42;23.73;;;;;;;29.76;100.00;97411.44;4819948;29;20065;-64
2023/07/18 00:31:41;;;;;;;31.92;25.13;;;;;;;29.73;100.00;97412.94;4832702;29;20069;-64
2023/07/18 00:34:11;;;;;;;32.55;23.45;;;;;;;29.73;100.00;97412.94;4818772;29;20142;-64
2023/07/18 00:36:40;;;;;;;34.20;24.58;;;;;;;29.73;100.00;97410.22;4834978;29;20130;-64
2023/07/18 00:39:09;;;;;;;31.83;23.55;;;;;;;29.75;100.00;97415.31;4819424;29;20064;-63
2023/07/18 00:41:39;;;;;;;34.85;23.95;;;;;;;29.77;100.00;97418.50;4811032;29;20190;-63
2023/07/18 00:44:09;;;;;;;33.08;24.33;;;;;;;29.78;100.00;97409.97;4831569;29;20496;-64
2023/07/18 00:46:39;;;;;;;35.28;25.02;;;;;;;29.81;100.00;97403.00;4819817;29;20053;-62
2023/07/18 00:49:09;;;;;;;34.03;25.38;;;;;;;29.80;100.00;97401.41;4812150;29;20073;-62
2023/07/18 00:51:38;;;;;;;33.53;23.08;;;;;;;29.83;100.00;97406.16;4808870;29;20046;-62
2023/07/18 00:54:07;;;;;;;32.08;24.40;;;;;;;29.88;100.00;97414.94;4821126;29;20151;-62
2023/07/18 00:56:38;;;;;;;32.47;24.10;;;;;;;29.92;100.00;97406.81;4835837;29;20551;-62
2023/07/18 00:59:09;;;;;;;35.25;25.05;;;;;;;29.95;100.00;97410.81;4804676;29;20158;-63
2023/07/18 01:01:39;;;;;;;29.15;22.27;;;;;;;30.01;100.00;97406.66;4826509;29;20055;-62
2023/07/18 01:04:10;;;;;;;31.83;22.45;;;;;;;30.09;100.00;97414.72;4807786;29;20073;-63
2023/07/18 01:06:39;;;;;;;29.65;22.23;;;;;;;30.18;100.00;97417.28;4811599;29;20050;-62
2023/07/18 01:09:09;;;;;;;32.40;22.42;;;;;;;30.24;100.00;97413.91;4818099;29;20078;-63
2023/07/18 01:11:39;;;;;;;31.30;22.50;;;;;;;30.25;100.00;97420.97;4801002;29;20795;-63
2023/07/18 01:14:09;;;;;;;31.50;23.52;;;;;;;30.33;100.00;97424.66;4813389;29;20111;-63
2023/07/18 01:16:41;;;;;;;32.13;24.63;;;;;;;30.33;100.00;97433.66;4820747;29;20083;-62
2023/07/18 01:19:11;;;;;;;47.75;34.47;;;;;;;30.36;100.00;97434.88;4803579;29;20166;-64
2023/07/18 01:21:42;;;;;;;43.90;33.65;;;;;;;30.39;100.00;97428.72;4832583;29;20142;-63
2023/07/18 01:24:11;;;;;;;41.85;28.85;;;;;;;30.42;100.00;97428.03;4840087;29;20126;-63
2023/07/18 01:26:40;;;;;;;37.53;26.98;;;;;;;30.44;100.00;97433.16;4826569;29;20388;-63
2023/07/18 01:29:10;;;;;;;34.13;24.55;;;;;;;30.49;100.00;97439.19;4834696;29;20499;-63
2023/07/18 01:31:39;;;;;;;34.50;25.02;;;;;;;30.58;100.00;97449.94;4811158;29;20074;-63
2023/07/18 01:34:09;;;;;;;34.83;22.83;;;;;;;30.63;100.00;97455.09;4806338;29;20062;-63
2023/07/18 01:36:38;;;;;;;33.00;23.38;;;;;;;30.72;100.00;97459.25;4813607;29;20145;-64
2023/07/18 01:39:08;;;;;;;34.50;24.50;;;;;;;30.73;100.00;97457.31;4835378;29;20054;-63
2023/07/18 01:41:37;;;;;;;35.42;23.27;;;;;;;30.83;100.00;97470.44;4823546;29;20090;-63
2023/07/18 01:44:08;;;;;;;36.08;22.30;;;;;;;30.90;100.00;97465.13;4827188;29;20060;-64
2023/07/18 01:46:37;;;;;;;32.15;21.83;;;;;;;31.02;100.00;97472.50;4814077;29;20070;-63
2023/07/18 01:49:08;;;;;;;27.67;20.95;;;;;;;31.12;100.00;97477.38;4807096;29;20047;-63
2023/07/18 01:51:38;;;;;;;28.02;21.10;;;;;;;31.30;100.00;97494.19;4823517;29;20058;-63
2023/07/18 01:54:07;;;;;;;27.80;20.38;;;;;;;31.47;100.00;97493.78;4807977;29;20077;-64
2023/07/18 01:56:38;;;;;;;27.83;21.02;;;;;;;31.52;100.00;97497.06;4838303;29;20046;-63
2023/07/18 01:59:08;;;;;;;30.08;20.70;;;;;;;31.66;100.00;97491.13;4816444;29;20054;-63
2023/07/18 02:01:37;;;;;;;26.83;19.48;;;;;;;31.84;100.00;97495.00;4819918;29;20050;-62
2023/07/18 02:04:07;;;;;;;28.55;21.02;;;;;;;31.61;100.00;97492.19;4834287;29;20448;-63
2023/07/18 02:06:36;;;;;;;25.13;19.83;;;;;;;31.77;100.00;97488.59;4822721;29;20069;-63
2023/07/18 02:09:06;;;;;;;30.42;21.50;;;;;;;31.96;100.00;97494.84;4837644;29;20059;-62
2023/07/18 02:11:37;;;;;;;29.90;21.08;;;;;;;32.18;100.00;97489.81;4813718;29;20127;-62
2023/07/18 02:14:06;;;;;;;33.28;19.75;;;;;;;32.15;100.00;97498.75;4842474;29;20107;-63
2023/07/18 02:16:35;;;;;;;28.45;19.33;;;;;;;32.49;100.00;97506.84;4809375;29;20101;-63
2023/07/18 02:19:05;;;;;;;25.42;18.20;;;;;;;32.49;100.00;97509.59;4811348;29;20059;-63
2023/07/18 02:21:36;;;;;;;23.60;17.92;;;;;;;32.81;100.00;97507.41;4817569;29;20050;-61
2023/07/18 02:24:06;;;;;;;27.08;19.23;;;;;;;32.94;100.00;97508.00;4814712;29;20157;-63
2023/07/18 02:26:35;;;;;;;25.02;17.10;;;;;;;32.98;99.92;97508.88;4841659;29;20058;-63
2023/07/18 02:29:05;;;;;;;25.98;18.42;;;;;;;33.17;100.00;97524.47;4800303;29;20491;-62
2023/07/18 02:31:38;;;;;;;;;;;;;;;33.17;100.00;97524.47;4814358;29;20062;-63
2023/07/18 02:34:07;;;;;;;28.08;18.42;;;;;;;33.39;100.00;97527.16;4819569;29;19930;-63
2023/07/18 02:36:37;;;;;;;23.40;17.98;;;;;;;33.64;99.75;97527.50;4791688;29;20676;-63
2023/07/18 02:39:08;;;;;;;25.77;18.23;;;;;;;33.86;100.00;97525.84;4836742;29;20119;-64
2023/07/18 02:41:38;;;;;;;20.63;16.52;;;;;;;33.78;97.01;97524.97;4820139;29;20158;-63
2023/07/18 02:44:07;;;;;;;28.20;17.50;;;;;;;33.78;95.53;97521.44;4818373;29;20289;-64
2023/07/18 02:46:36;;;;;;;24.35;15.63;;;;;;;34.04;97.81;97521.38;4818373;29;20055;-63
2023/07/18 02:49:06;;;;;;;26.42;17.88;;;;;;;33.92;96.15;97526.31;4815950;29;20061;-63
2023/07/18 02:51:36;;;;;;;24.52;17.95;;;;;;;34.16;93.97;97531.34;4834817;29;20134;-63
2023/07/18 02:54:05;;;;;;;22.17;17.13;;;;;;;33.91;96.44;97532.97;4805034;29;20128;-63
2023/07/18 02:56:35;;;;;;;27.42;18.52;;;;;;;33.88;95.25;97525.50;4805408;29;20046;-63
2023/07/18 02:59:04;;;;;;;25.67;16.55;;;;;;;34.24;94.48;97525.56;4812617;29;20078;-63
2023/07/18 03:01:34;;;;;;;21.73;16.23;;;;;;;34.04;93.42;97534.31;4832347;29;20069;-63
2023/07/18 03:04:05;;;;;;;16.80;14.55;;;;;;;34.29;93.09;97527.19;4812711;29;20054;-63
2023/07/18 03:06:34;;;;;;;26.65;16.05;;;;;;;34.38;92.44;97532.38;4802477;29;20113;-63
2023/07/18 03:09:03;;;;;;;23.98;16.63;;;;;;;34.26;91.42;97533.41;4833371;29;20407;-63
2023/07/18 03:11:32;;;;;;;25.30;16.92;;;;;;;34.46;91.68;97534.03;4821239;29;20050;-64
2023/07/18 03:14:03;;;;;;;25.17;15.40;;;;;;;34.58;89.57;97531.00;4796585;29;20592;-63
2023/07/18 03:16:34;;;;;;;25.48;15.40;;;;;;;34.43;91.90;97535.59;4812395;29;20054;-63
2023/07/18 03:19:05;;;;;;;22.70;14.98;;;;;;;34.30;92.67;97541.72;4806731;29;20064;-64
2023/07/18 03:21:34;;;;;;;24.95;16.40;;;;;;;34.35;91.46;97544.91;4802957;29;20059;-63
2023/07/18 03:24:08;;;;;;;23.45;16.30;;;;;;;34.15;91.49;97546.22;4805844;29;20082;-63
2023/07/18 03:26:37;;;;;;;21.73;15.63;;;;;;;34.00;90.65;97541.72;4804066;29;20156;-63
2023/07/18 03:29:07;;;;;;;24.95;15.55;;;;;;;34.23;92.50;97539.69;4832338;29;20047;-64
2023/07/18 03:31:38;;;;;;;27.63;16.42;;;;;;;34.08;92.21;97533.19;4833235;29;20057;-63
2023/07/18 03:34:07;;;;;;;26.98;17.38;;;;;;;34.23;92.53;97536.94;4808647;29;20059;-64
2023/07/18 03:36:38;;;;;;;24.85;16.42;;;;;;;34.40;91.47;97547.31;4805870;29;20156;-63
2023/07/18 03:39:08;;;;;;;27.73;16.75;;;;;;;34.19;90.29;97547.09;4805883;29;20054;-63
2023/07/18 03:41:38;;;;;;;29.40;16.10;;;;;;;34.49;88.58;97547.03;4836987;29;20046;-63
2023/07/18 03:44:07;;;;;;;22.92;14.52;;;;;;;34.67;88.22;97559.81;4821598;29;20060;-64
2023/07/18 03:46:36;;;;;;;23.58;13.52;;;;;;;34.57;85.92;97556.91;4835491;29;20574;-63
2023/07/18 03:49:06;;;;;;;24.02;15.77;;;;;;;34.78;88.16;97556.38;4838178;29;20145;-65
2023/07/18 03:51:35;;;;;;;21.15;14.35;;;;;;;34.30;88.69;97552.72;4823455;29;20662;-65
2023/07/18 03:54:05;;;;;;;24.88;17.00;;;;;;;34.31;89.12;97554.28;4821399;29;20103;-65
2023/07/18 03:56:34;;;;;;;25.58;16.27;;;;;;;34.32;89.85;97561.38;4823048;29;20516;-66
2023/07/18 03:59:04;;;;;;;23.25;16.02;;;;;;;34.19;91.32;97566.34;4838434;29;20479;-66
2023/07/18 04:01:33;;;;;;;24.52;17.42;;;;;;;34.33;91.30;97562.97;4809948;29;20692;-67
2023/07/18 04:04:03;;;;;;;21.52;15.02;;;;;;;34.39;88.38;97564.22;4842160;29;20165;-67
2023/07/18 04:06:32;;;;;;;23.70;13.25;;;;;;;34.76;87.77;97561.47;4826967;29;20057;-66
2023/07/18 04:09:02;;;;;;;23.38;13.15;;;;;;;34.75;87.48;97573.63;4808414;29;20081;-66
2023/07/18 04:11:31;;;;;;;21.05;14.60;;;;;;;34.59;87.83;97576.59;4841119;29;20106;-65
2023/07/18 04:14:01;;;;;;;22.50;14.57;;;;;;;34.54;86.51;97580.47;4821788;29;20065;-67
2023/07/18 04:16:31;;;;;;;24.25;13.93;;;;;;;34.64;85.12;97581.75;4839025;29;20054;-66
2023/07/18 04:19:01;;;;;;;24.40;13.82;;;;;;;34.65;87.54;97570.38;4824148;29;20486;-66
2023/07/18 04:21:30;;;;;;;20.17;13.48;;;;;;;34.57;88.53;97576.97;4826533;29;20081;-65
2023/07/18 04:24:00;;;;;;;29.30;15.18;;;;;;;34.28;86.19;97578.63;4817627;29;20490;-67
2023/07/18 04:26:29;;;;;;;23.00;14.07;;;;;;;34.12;87.74;97578.00;4821859;29;20057;-66
2023/07/18 04:28:59;;;;;;;16.58;12.07;;;;;;;34.30;84.54;97574.72;4827805;29;20157;-64
2023/07/18 04:31:28;;;;;;;23.20;12.70;;;;;;;34.69;85.77;97579.50;4826714;29;20058;-65
2023/07/18 04:33:59;;;;;;;21.33;13.45;;;;;;;34.52;83.18;97574.56;4822192;29;20050;-64
2023/07/18 04:36:29;;;;;;;20.60;13.85;;;;;;;34.41;83.94;97570.91;4825977;29;20180;-66
2023/07/18 04:38:58;;;;;;;25.98;14.20;;;;;;;34.82;85.39;97573.72;4821447;29;20548;-63
2023/07/18 04:41:27;;;;;;;23.48;12.90;;;;;;;35.00;82.00;97567.22;4841533;29;20050;-63
2023/07/18 04:44:12;;;;;;;23.48;14.68;;;;;;;34.63;84.05;97577.44;4823951;29;20647;-63
2023/07/18 04:46:42;;;;;;;25.38;14.80;;;;;;;34.48;84.30;97568.22;4819470;29;20070;-63
2023/07/18 04:49:16;;;;;;;20.85;13.55;;;;;;;34.63;83.76;97567.22;4822159;29;20065;-65
2023/07/18 04:51:45;;;;;;;21.63;13.30;;;;;;;35.24;83.18;97574.09;4821468;29;20054;-64
2023/07/18 04:54:31;;;;;;;25.10;13.50;;;;;;;35.15;80.58;97573.59;4824727;29;20182;-63
2023/07/18 04:57:00;;;;;;;19.10;11.85;;;;;;;35.60;82.37;97564.91;4825985;29;20550;-64
2023/07/18 04:59:52;;;;;;;15.57;11.45;;;;;;;35.77;76.33;97576.44;4829328;29;20305;-64
2023/07/18 05:02:24;;;;;;;27.45;12.75;;;;;;;35.87;77.35;97575.72;4825724;29;20110;-64
2023/07/18 05:04:54;;;;;;;24.30;15.85;;;;;;;35.36;75.90;97584.78;4824895;29;20077;-64
2023/07/18 05:07:23;;;;;;;19.05;12.80;;;;;;;35.53;75.14;97578.66;4824176;29;20053;-65
2023/07/18 05:09:53;;;;;;;24.73;12.90;;;;;;;35.93;74.09;97580.47;4819093;29;20091;-64
2023/07/18 05:12:22;;;;;;;22.40;12.48;;;;;;;36.24;75.08;97587.34;4811722;29;20081;-63
2023/07/18 05:14:51;;;;;;;18.48;11.32;;;;;;;36.45;75.92;97578.34;4837263;29;20116;-63
2023/07/18 05:17:21;;;;;;;21.58;13.07;;;;;;;36.12;73.84;97578.59;4824168;29;20458;-64
2023/07/18 05:19:51;;;;;;;19.15;12.75;;;;;;;36.66;74.96;97580.38;4839887;29;20069;-63
2023/07/18 05:22:21;;;;;;;16.85;11.18;;;;;;;36.87;75.34;97580.41;4826192;29;21797;-64
2023/07/18 05:24:51;;;;;;;23.48;13.48;;;;;;;36.47;74.73;97582.28;4822935;29;20050;-63
2023/07/18 05:27:21;;;;;;;18.63;12.30;;;;;;;36.33;72.25;97573.19;4820560;29;21613;-64
2023/07/18 05:29:51;;;;;;;18.95;11.88;;;;;;;36.13;72.13;97563.63;4820827;29;20303;-64
2023/07/18 05:32:20;;;;;;;17.77;11.35;;;;;;;36.03;72.74;97565.13;4825103;29;20056;-63
2023/07/18 05:34:49;;;;;;;15.10;11.45;;;;;;;36.51;72.59;97563.00;4823800;29;20058;-64
2023/07/18 05:37:21;;;;;;;23.42;11.95;;;;;;;36.63;74.22;97567.38;4823856;29;20065;-63
2023/07/18 05:39:51;;;;;;;19.95;11.73;;;;;;;36.52;73.56;97561.78;4817171;29;20142;-64
2023/07/18 05:42:21;;;;;;;16.00;10.63;;;;;;;36.15;75.05;97556.56;4821400;29;20045;-64
2023/07/18 05:44:52;;;;;;;19.90;11.52;;;;;;;36.32;74.23;97560.56;4836473;29;20712;-64
2023/07/18 05:47:21;;;;;;;22.52;11.45;;;;;;;36.48;73.31;97564.53;4804169;29;20425;-64
2023/07/18 05:49:51;;;;;;;19.92;12.13;;;;;;;35.66;74.63;97559.06;4821751;29;20058;-64
2023/07/18 05:52:20;;;;;;;17.10;11.32;;;;;;;35.38;75.82;97559.63;4838374;29;20061;-64
2023/07/18 05:54:51;;;;;;;19.52;12.18;;;;;;;35.01;76.81;97562.47;4831941;29;20527;-64
2023/07/18 05:57:21;;;;;;;14.35;10.05;;;;;;;35.33;79.13;97560.00;4825116;29;20131;-64
2023/07/18 05:59:51;;;;;;;16.13;11.00;;;;;;;35.58;80.18;97558.22;4827578;29;20126;-63
2023/07/18 06:02:21;;;;;;;15.55;10.52;;;;;;;35.82;75.41;97552.06;4821974;29;20468;-64
2023/07/18 06:04:51;;;;;;;15.13;11.07;;;;;;;36.23;77.96;97547.16;4820628;29;20061;-63
2023/07/18 06:07:20;;;;;;;19.90;10.90;;;;;;;36.01;78.07;97545.47;4823247;29;20082;-64
2023/07/18 06:09:52;;;;;;;18.70;10.90;;;;;;;35.93;76.69;97549.38;4822288;29;20841;-64
2023/07/18 06:12:22;;;;;;;20.13;11.73;;;;;;;36.12;77.30;97551.81;4820298;29;20078;-63
2023/07/18 06:14:52;;;;;;;17.73;10.40;;;;;;;35.68;74.64;97540.16;4823091;29;20983;-64
2023/07/18 06:17:23;;;;;;;19.60;11.35;;;;;;;36.02;73.45;97541.53;4838187;29;20053;-63
2023/07/18 06:19:54;;;;;;;14.23;10.95;;;;;;;36.09;77.32;97540.75;4825881;29;20061;-64
2023/07/18 06:22:24;;;;;;;18.20;12.18;;;;;;;36.10;74.40;97543.13;4821119;29;20058;-63
2023/07/18 06:24:53;;;;;;;16.73;11.43;;;;;;;36.02;74.12;97533.25;4820258;29;20506;-64
2023/07/18 06:27:26;;;;;;;18.90;12.55;;;;;;;36.14;73.82;97529.38;4837933;29;20534;-64
2023/07/18 06:29:56;;;;;;;20.92;11.50;;;;;;;36.23;76.16;97518.78;4818140;29;20443;-64
2023/07/18 06:32:28;;;;;;;18.13;10.65;;;;;;;36.08;72.35;97517.09;4820397;29;20055;-63
2023/07/18 06:34:58;;;;;;;16.98;11.65;;;;;;;36.34;73.14;97523.13;4820169;29;20678;-63
2023/07/18 06:37:44;;;;;;;19.05;13.50;;;;;;;36.07;73.80;97526.59;4823598;29;20054;-63
2023/07/18 06:40:21;;;;;;;22.85;12.40;;;;;;;35.88;73.76;97519.41;4822502;29;20083;-64
2023/07/18 06:42:51;;;;;;;29.67;13.77;;;;;;;36.01;76.93;97524.19;4822887;29;20077;-64
2023/07/18 06:45:22;;;;;;;19.67;13.55;;;;;;;35.95;74.34;97520.22;4821450;29;20061;-63
2023/07/18 06:47:51;;;;;;;23.05;15.45;;;;;;;36.03;73.36;97515.53;4821035;29;20383;-63
2023/07/18 06:50:25;;;;;;;23.65;15.45;;;;;;;35.70;72.78;97526.81;4817471;29;20059;-63
2023/07/18 06:52:55;;;;;;;21.73;13.88;;;;;;;35.45;77.57;97513.66;4822117;29;20136;-64
2023/07/18 06:55:24;;;;;;;20.15;14.90;;;;;;;35.36;76.01;97509.69;4808427;29;20470;-63
2023/07/18 06:57:56;;;;;;;16.55;13.25;;;;;;;35.88;76.20;97511.16;4822934;29;20118;-64
2023/07/18 07:00:26;;;;;;;18.85;13.85;;;;;;;36.20;74.74;97517.59;4823123;29;20149;-63
2023/07/18 07:02:56;;;;;;;17.70;13.45;;;;;;;36.41;74.20;97520.41;4821379;29;20072;-63
2023/07/18 07:05:26;;;;;;;18.05;13.13;;;;;;;36.20;72.20;97523.13;4819595;29;20046;-63
2023/07/18 07:07:58;;;;;;;18.30;13.68;;;;;;;36.34;75.96;97514.84;4832401;29;20119;-63
2023/07/18 07:10:28;;;;;;;19.65;14.15;;;;;;;36.16;72.40;97510.50;4820007;29;20050;-63
2023/07/18 07:12:58;;;;;;;19.42;12.88;;;;;;;36.04;73.10;97517.09;4822994;29;20053;-64
2023/07/18 07:15:28;;;;;;;19.42;12.48;;;;;;;36.03;75.43;97516.31;4817442;29;20058;-63
2023/07/18 07:17:57;;;;;;;14.90;12.55;;;;;;;36.07;71.26;97510.03;4818702;29;20062;-64
2023/07/18 07:20:28;;;;;;;16.85;11.60;;;;;;;36.00;72.49;97508.81;4820326;29;20058;-63
2023/07/18 07:22:59;;;;;;;16.20;12.05;;;;;;;35.95;73.12;97494.63;4819362;29;20054;-62
2023/07/18 07:25:31;;;;;;;16.40;13.00;;;;;;;36.12;73.07;97499.44;4820516;29;20066;-64
2023/07/18 07:28:01;;;;;;;16.80;12.43;;;;;;;36.01;73.87;97502.13;4835178;29;20062;-63
2023/07/18 07:30:34;;;;;;;14.27;12.35;;;;;;;35.89;72.10;97490.69;4836333;29;20064;-63
2023/07/18 07:33:05;;;;;;;17.27;12.52;;;;;;;35.92;70.13;97487.94;4813922;29;20049;-63
2023/07/18 07:35:34;;;;;;;17.15;11.48;;;;;;;36.15;73.11;97486.84;4808115;29;20055;-63
2023/07/18 07:38:03;;;;;;;23.20;13.05;;;;;;;36.16;69.01;97480.16;4821159;29;20482;-63
2023/07/18 07:40:33;;;;;;;17.80;11.95;;;;;;;36.12;70.05;97479.34;4837583;29;20080;-64
2023/07/18 07:43:03;;;;;;;19.63;12.18;;;;;;;36.16;71.52;97467.13;4816247;29;20069;-64
2023/07/18 07:45:33;;;;;;;15.82;11.05;;;;;;;36.28;73.59;97468.75;4836105;29;20145;-64
2023/07/18 07:48:02;;;;;;;36.78;14.63;;;;;;;35.77;75.64;97469.75;4818548;29;20058;-65
2023/07/18 07:50:35;;;;;;;19.63;13.68;;;;;;;35.88;80.81;97459.56;4834662;29;20050;-64
2023/07/18 07:53:04;;;;;;;16.17;13.50;;;;;;;35.84;77.07;97464.28;4817995;29;20109;-64
2023/07/18 07:55:35;;;;;;;22.83;14.40;;;;;;;35.92;75.38;97465.88;4819529;29;20069;-64
2023/07/18 07:58:06;;;;;;;16.30;13.13;;;;;;;35.88;74.22;97465.09;4821540;29;20509;-64
2023/07/18 08:00:36;;;;;;;18.33;13.30;;;;;;;36.17;74.15;97477.00;4791776;29;20051;-64
2023/07/18 08:03:05;;;;;;;20.42;13.95;;;;;;;36.19;72.87;97471.09;4821049;29;20054;-64
2023/07/18 08:05:35;;;;;;;18.05;14.48;;;;;;;35.77;74.89;97466.22;4824348;29;20616;-64
2023/07/18 08:08:04;;;;;;;24.90;15.25;;;;;;;35.92;73.51;97459.56;4819599;29;20055;-65
2023/07/18 08:10:34;;;;;;;16.27;13.75;;;;;;;35.57;74.68;97454.69;4834856;29;20420;-64
2023/07/18 08:13:03;;;;;;;20.65;14.23;;;;;;;35.76;75.68;97451.63;4809599;29;20053;-64
2023/07/18 08:15:33;;;;;;;19.88;14.38;;;;;;;35.75;73.97;97454.78;4799013;29;20069;-64
2023/07/18 08:18:03;;;;;;;22.08;14.18;;;;;;;35.77;73.91;97447.72;4836586;29;20141;-64
2023/07/18 08:20:32;;;;;;;18.85;12.70;;;;;;;35.69;75.13;97448.88;4825712;29;20111;-63
2023/07/18 08:23:03;;;;;;;21.88;13.65;;;;;;;35.59;75.49;97441.31;4821270;29;20356;-64
2023/07/18 08:25:33;;;;;;;18.23;13.00;;;;;;;35.62;74.87;97435.03;4826804;29;20458;-64
2023/07/18 08:28:03;;;;;;;15.60;13.32;;;;;;;35.60;76.65;97427.16;4823744;29;20054;-64
2023/07/18 08:30:32;;;;;;;17.35;12.20;;;;;;;35.76;76.85;97428.81;4821455;29;20046;-63
2023/07/18 08:33:02;;;;;;;17.17;11.77;;;;;;;35.88;73.85;97432.00;4824878;29;20144;-64
2023/07/18 08:35:33;;;;;;;18.02;12.95;;;;;;;35.72;75.19;97425.25;4819484;29;20234;-64
2023/07/18 08:38:02;;;;;;;17.10;12.20;;;;;;;35.59;75.73;97420.06;4806961;29;20064;-64
2023/07/18 08:40:32;;;;;;;16.30;11.85;;;;;;;35.49;74.90;97409.81;4824335;29;20122;-64
2023/07/18 08:43:02;;;;;;;15.23;11.75;;;;;;;35.51;77.27;97423.19;4823666;29;20074;-65
2023/07/18 08:45:35;;;;;;;16.40;11.43;;;;;;;35.60;76.35;97413.38;4824228;29;20061;-64
2023/07/18 08:48:05;;;;;;;15.45;11.88;;;;;;;35.46;76.57;97410.56;4820706;29;20046;-64
2023/07/18 08:50:36;;;;;;;16.50;11.95;;;;;;;35.40;76.22;97408.59;4819372;29;20102;-64
2023/07/18 08:53:05;;;;;;;16.63;11.98;;;;;;;35.52;75.84;97406.28;4813362;29;20057;-63
2023/07/18 08:55:36;;;;;;;12.85;11.25;;;;;;;35.42;75.55;97409.75;4799664;29;20049;-65
2023/07/18 08:58:06;;;;;;;15.35;11.00;;;;;;;35.14;76.18;97406.88;4806280;29;20073;-63
2023/07/18 09:00:35;;;;;;;16.48;11.63;;;;;;;35.25;76.36;97395.91;4801060;29;20054;-64
2023/07/18 09:03:04;;;;;;;15.55;11.45;;;;;;;35.22;76.76;97391.97;4803335;29;20047;-65
2023/07/18 09:05:38;;;;;;;13.52;10.32;;;;;;;35.30;77.51;97390.03;4820306;29;20073;-64
2023/07/18 09:08:07;;;;;;;13.40;10.07;;;;;;;35.40;77.20;97387.34;4830146;29;20149;-63
2023/07/18 09:10:37;;;;;;;14.90;9.70;;;;;;;35.49;77.41;97392.50;4819257;29;20046;-64
2023/07/18 09:13:09;;;;;;;17.52;9.88;;;;;;;35.50;75.77;97394.84;4822024;29;20131;-64
2023/07/18 09:15:39;;;;;;;13.93;9.93;;;;;;;35.34;73.95;97386.13;4835759;29;20173;-66
2023/07/18 09:18:09;;;;;;;13.55;9.60;;;;;;;35.36;74.48;97391.25;4838494;29;20554;-64
2023/07/18 09:20:38;;;;;;;10.25;9.13;;;;;;;35.14;74.30;97382.84;4824711;29;20383;-65
2023/07/18 09:23:08;;;;;;;18.27;10.05;;;;;;;35.30;76.14;97376.28;4820452;29;20046;-65
2023/07/18 09:25:39;;;;;;;12.02;9.50;;;;;;;35.24;76.90;97370.34;4823584;29;20049;-65
2023/07/18 09:28:13;;;;;;;15.15;9.65;;;;;;;35.17;77.12;97370.31;4823461;29;20057;-65
2023/07/18 09:30:43;;;;;;;16.42;9.73;;;;;;;35.27;78.37;97380.59;4823238;29;20083;-64
2023/07/18 09:33:13;;;;;;;13.20;9.35;;;;;;;35.22;77.03;97380.97;4822716;29;20133;-64
2023/07/18 09:35:43;;;;;;;22.25;10.32;;;;;;;35.15;79.30;97376.22;4823237;29;20050;-64
2023/07/18 09:38:12;;;;;;;19.40;10.70;;;;;;;35.01;78.07;97367.84;4813113;29;20053;-64
2023/07/18 09:40:42;;;;;;;22.52;10.80;;;;;;;34.96;76.55;97361.94;4819873;29;20132;-64
2023/07/18 09:43:13;;;;;;;30.27;11.23;;;;;;;35.07;77.53;97363.56;4822187;29;20051;-64
2023/07/18 09:45:45;;;;;;;18.08;10.30;;;;;;;34.89;75.74;97353.63;4834458;29;20054;-64
2023/07/18 09:48:16;;;;;;;14.23;10.23;;;;;;;34.79;76.40;97355.13;4820607;29;20801;-65
2023/07/18 09:50:51;;;;;;;14.10;9.88;;;;;;;34.61;78.10;97349.50;4823036;29;20061;-64
2023/07/18 09:53:23;;;;;;;13.13;9.17;;;;;;;34.52;78.83;97346.28;4819273;29;20058;-65
2023/07/18 09:55:54;;;;;;;13.70;10.05;;;;;;;34.53;77.06;97339.63;4826469;29;20047;-64
2023/07/18 09:58:25;;;;;;;18.08;10.02;;;;;;;34.80;79.05;97339.41;4822357;29;20054;-64
2023/07/18 10:00:57;;;;;;;16.05;9.85;;;;;;;34.99;78.02;97342.69;4820167;29;20056;-65
2023/07/18 10:03:31;;;;;;;14.38;9.52;;;;;;;35.07;77.41;97335.22;4838541;29;20121;-65
2023/07/18 10:06:01;;;;;;;14.75;9.32;;;;;;;34.86;76.83;97326.88;4823439;29;20050;-65
2023/07/18 10:08:30;;;;;;;13.43;9.20;;;;;;;34.82;77.52;97334.34;4834504;29;20141;-66
2023/07/18 10:11:07;;;;;;;15.50;10.70;;;;;;;34.71;77.09;97323.25;4820754;29;20046;-64
2023/07/18 10:13:55;;;;;;;13.55;9.65;;;;;;;34.79;78.77;97326.84;4820823;29;20070;-65
2023/07/18 10:16:27;;;;;;;12.48;9.65;;;;;;;34.72;77.36;97324.84;4835342;29;20064;-65
2023/07/18 10:18:56;;;;;;;14.50;9.73;;;;;;;34.65;77.36;97335.78;4822198;29;20062;-65
2023/07/18 10:21:31;;;;;;;13.32;9.50;;;;;;;34.61;78.14;97327.47;4822095;29;20053;-65
2023/07/18 10:24:26;;;;;;;12.15;8.77;;;;;;;34.66;78.54;97318.91;4796286;29;20589;-64
2023/07/18 10:27:06;;;;;;;15.70;9.98;;;;;;;34.71;77.79;97313.03;4801065;29;20161;-64
2023/07/18 10:29:39;;;;;;;15.15;9.20;;;;;;;34.75;77.61;97310.31;4834452;29;20423;-64
2023/07/18 10:32:12;;;;;;;15.95;9.18;;;;;;;34.79;77.39;97308.34;4820551;29;20081;-65
2023/07/18 10:34:53;;;;;;;14.07;10.05;;;;;;;34.51;77.65;97292.47;4806133;29;20050;-64
2023/07/18 10:37:26;;;;;;;14.50;10.85;;;;;;;34.45;78.43;97290.44;4839865;29;20127;-65
2023/07/18 10:39:56;;;;;;;14.82;10.43;;;;;;;34.54;79.08;97297.19;4820241;29;20062;-64
2023/07/18 10:42:29;;;;;;;14.63;10.50;;;;;;;34.66;80.52;97304.34;4821518;29;20394;-64
2023/07/18 10:45:08;;;;;;;15.05;11.55;;;;;;;34.63;78.19;97305.09;4817212;29;20084;-66
2023/07/18 10:47:40;;;;;;;15.10;10.57;;;;;;;34.65;77.77;97298.03;4499602;29;10000309;-64
2023/07/18 10:50:14;;;;;;;16.67;11.15;;;;;;;34.61;76.90;97299.22;4818725;29;20053;-65
2023/07/18 10:52:47;;;;;;;15.25;11.27;;;;;;;34.49;78.47;97299.50;4816782;29;20058;-65
2023/07/18 10:55:16;;;;;;;16.77;11.32;;;;;;;34.47;79.21;97299.91;4819241;29;20133;-64
2023/07/18 10:57:46;;;;;;;15.40;11.25;;;;;;;34.48;78.93;97295.16;4832992;29;20078;-65
2023/07/18 11:00:15;;;;;;;14.38;11.07;;;;;;;34.52;78.27;97296.78;4823714;29;20053;-64
2023/07/18 11:02:46;;;;;;;14.38;11.35;;;;;;;34.51;79.55;97297.97;4815763;29;20050;-65
2023/07/18 11:05:15;;;;;;;18.27;10.50;;;;;;;34.57;79.45;97299.16;4818597;29;20057;-64
2023/07/18 11:07:48;;;;;;;15.55;12.27;;;;;;;34.55;80.21;97303.50;4831701;29;20455;-66
2023/07/18 11:10:18;;;;;;;16.10;11.57;;;;;;;34.54;80.56;97299.94;4802819;29;20172;-64
2023/07/18 11:12:52;;;;;;;15.27;12.13;;;;;;;34.52;79.29;97293.25;4835986;29;20075;-65
2023/07/18 11:15:22;;;;;;;17.17;11.27;;;;;;;34.46;78.63;97292.81;4815443;29;21651;-66
2023/07/18 11:17:53;;;;;;;13.98;11.55;;;;;;;34.50;78.60;97281.84;4818104;29;20073;-65
2023/07/18 11:20:23;;;;;;;12.32;11.02;;;;;;;34.47;79.11;97288.13;4818810;29;20061;-66
2023/07/18 11:22:53;;;;;;;17.98;12.13;;;;;;;34.52;78.13;97285.78;4815051;29;20074;-65
2023/07/18 11:25:23;;;;;;;18.10;12.50;;;;;;;34.52;78.65;97293.25;4815431;29;20831;-65
2023/07/18 11:27:52;;;;;;;18.83;12.55;;;;;;;34.49;79.19;97286.56;4821582;29;20532;-65
2023/07/18 11:30:22;;;;;;;15.55;12.45;;;;;;;34.48;79.38;97284.97;4817082;29;20050;-65
2023/07/18 11:32:52;;;;;;;15.10;12.82;;;;;;;34.43;80.48;97277.09;4831712;29;20050;-66